sensor_id;sensor_type;location;lat;lon;timestamp;P1;durP1;ratioP1;P2;durP2;ratioP2
40591;SDS011;26301;42.832;23.918;2022-09-30T00:01:43;7.15;;;5.60;;
40591;SDS011;26301;42.832;23.918;2022-09-30T00:04:15;8.68;;;5.03;;
40591;SDS011;26301;42.832;23.918;2022-09-30T00:06:43;7.38;;;5.10;;
40591;SDS011;26301;42.832;23.918;2022-09-30T00:09:09;9.38;;;5.30;;
40591;SDS011;26301;42.832;23.918;2022-09-30T00:11:36;8.68;;;5.22;;
40591;SDS011;26301;42.832;23.918;2022-09-30T00:14:04;10.15;;;6.00;;
40591;SDS011;26301;42.832;23.918;2022-09-30T00:16:32;10.05;;;4.85;;
40591;SDS011;26301;42.832;23.918;2022-09-30T00:19:00;9.80;;;5.60;;
40591;SDS011;26301;42.832;23.918;2022-09-30T00:21:28;7.15;;;4.78;;
40591;SDS011;26301;42.832;23.918;2022-09-30T00:23:55;7.93;;;5.18;;
40591;SDS011;26301;42.832;23.918;2022-09-30T00:26:21;6.38;;;5.25;;
40591;SDS011;26301;42.832;23.918;2022-09-30T00:28:48;9.93;;;5.60;;
40591;SDS011;26301;42.832;23.918;2022-09-30T00:31:16;10.43;;;6.57;;
40591;SDS011;26301;42.832;23.918;2022-09-30T00:33:44;10.38;;;5.93;;
40591;SDS011;26301;42.832;23.918;2022-09-30T00:36:38;7.22;;;5.20;;
40591;SDS011;26301;42.832;23.918;2022-09-30T00:39:20;12.00;;;5.47;;
40591;SDS011;26301;42.832;23.918;2022-09-30T00:41:50;8.10;;;5.35;;
40591;SDS011;26301;42.832;23.918;2022-09-30T00:49:57;6.15;;;4.85;;
40591;SDS011;26301;42.832;23.918;2022-09-30T00:52:26;9.10;;;5.45;;
40591;SDS011;26301;42.832;23.918;2022-09-30T00:54:54;8.80;;;5.72;;
40591;SDS011;26301;42.832;23.918;2022-09-30T00:57:22;14.05;;;7.10;;
40591;SDS011;26301;42.832;23.918;2022-09-30T00:59:48;9.35;;;5.78;;
40591;SDS011;26301;42.832;23.918;2022-09-30T01:02:16;7.70;;;5.75;;
40591;SDS011;26301;42.832;23.918;2022-09-30T01:04:42;8.30;;;6.07;;
40591;SDS011;26301;42.832;23.918;2022-09-30T01:07:11;9.30;;;5.82;;
40591;SDS011;26301;42.832;23.918;2022-09-30T01:09:39;11.25;;;6.15;;
40591;SDS011;26301;42.832;23.918;2022-09-30T01:12:08;11.07;;;5.85;;
40591;SDS011;26301;42.832;23.918;2022-09-30T01:14:40;10.00;;;6.15;;
40591;SDS011;26301;42.832;23.918;2022-09-30T01:17:19;7.78;;;5.50;;
40591;SDS011;26301;42.832;23.918;2022-09-30T01:31:36;7.50;;;5.03;;
40591;SDS011;26301;42.832;23.918;2022-09-30T01:39:57;12.30;;;5.85;;
40591;SDS011;26301;42.832;23.918;2022-09-30T01:45:09;12.85;;;5.95;;
40591;SDS011;26301;42.832;23.918;2022-09-30T01:47:41;9.60;;;5.47;;
40591;SDS011;26301;42.832;23.918;2022-09-30T01:50:15;8.73;;;5.47;;
40591;SDS011;26301;42.832;23.918;2022-09-30T01:53:00;8.77;;;5.53;;
40591;SDS011;26301;42.832;23.918;2022-09-30T01:55:30;6.63;;;5.32;;
40591;SDS011;26301;42.832;23.918;2022-09-30T01:58:11;10.90;;;4.90;;
40591;SDS011;26301;42.832;23.918;2022-09-30T02:00:45;7.53;;;4.70;;
40591;SDS011;26301;42.832;23.918;2022-09-30T02:03:16;13.23;;;6.20;;
40591;SDS011;26301;42.832;23.918;2022-09-30T02:09:06;9.15;;;6.07;;
40591;SDS011;26301;42.832;23.918;2022-09-30T02:11:34;7.70;;;5.47;;
40591;SDS011;26301;42.832;23.918;2022-09-30T02:16:37;6.82;;;4.57;;
40591;SDS011;26301;42.832;23.918;2022-09-30T02:21:37;6.23;;;4.30;;
40591;SDS011;26301;42.832;23.918;2022-09-30T02:24:08;5.97;;;4.05;;
40591;SDS011;26301;42.832;23.918;2022-09-30T02:26:39;8.85;;;4.50;;
40591;SDS011;26301;42.832;23.918;2022-09-30T02:29:16;5.00;;;3.70;;
40591;SDS011;26301;42.832;23.918;2022-09-30T02:31:47;8.40;;;4.35;;
40591;SDS011;26301;42.832;23.918;2022-09-30T02:34:18;7.30;;;3.95;;
40591;SDS011;26301;42.832;23.918;2022-09-30T02:37:06;7.68;;;4.38;;
40591;SDS011;26301;42.832;23.918;2022-09-30T02:39:56;7.30;;;3.65;;
40591;SDS011;26301;42.832;23.918;2022-09-30T02:42:37;8.45;;;3.90;;
40591;SDS011;26301;42.832;23.918;2022-09-30T02:45:06;7.50;;;3.75;;
40591;SDS011;26301;42.832;23.918;2022-09-30T02:47:44;8.70;;;4.32;;
40591;SDS011;26301;42.832;23.918;2022-09-30T02:50:50;6.57;;;4.18;;
40591;SDS011;26301;42.832;23.918;2022-09-30T02:53:58;7.95;;;4.22;;
40591;SDS011;26301;42.832;23.918;2022-09-30T02:59:15;10.20;;;4.30;;
40591;SDS011;26301;42.832;23.918;2022-09-30T03:01:41;8.80;;;3.85;;
40591;SDS011;26301;42.832;23.918;2022-09-30T03:04:08;5.38;;;4.10;;
40591;SDS011;26301;42.832;23.918;2022-09-30T03:06:37;5.18;;;3.92;;
40591;SDS011;26301;42.832;23.918;2022-09-30T03:09:03;13.07;;;4.47;;
40591;SDS011;26301;42.832;23.918;2022-09-30T03:11:30;7.85;;;3.95;;
40591;SDS011;26301;42.832;23.918;2022-09-30T03:27:57;6.45;;;4.63;;
40591;SDS011;26301;42.832;23.918;2022-09-30T03:30:58;8.73;;;5.28;;
40591;SDS011;26301;42.832;23.918;2022-09-30T03:33:50;10.80;;;4.75;;
40591;SDS011;26301;42.832;23.918;2022-09-30T03:44:34;7.85;;;4.72;;
40591;SDS011;26301;42.832;23.918;2022-09-30T03:47:07;9.35;;;5.45;;
40591;SDS011;26301;42.832;23.918;2022-09-30T03:49:37;11.05;;;5.32;;
40591;SDS011;26301;42.832;23.918;2022-09-30T03:52:07;7.57;;;5.43;;
40591;SDS011;26301;42.832;23.918;2022-09-30T03:54:53;6.53;;;4.65;;
40591;SDS011;26301;42.832;23.918;2022-09-30T03:57:24;10.10;;;5.30;;
40591;SDS011;26301;42.832;23.918;2022-09-30T03:59:57;12.10;;;5.28;;
40591;SDS011;26301;42.832;23.918;2022-09-30T04:02:24;9.38;;;6.03;;
40591;SDS011;26301;42.832;23.918;2022-09-30T04:04:50;9.23;;;5.57;;
40591;SDS011;26301;42.832;23.918;2022-09-30T04:07:16;8.23;;;5.28;;
40591;SDS011;26301;42.832;23.918;2022-09-30T04:09:42;11.50;;;5.90;;
40591;SDS011;26301;42.832;23.918;2022-09-30T04:12:08;7.90;;;5.55;;
40591;SDS011;26301;42.832;23.918;2022-09-30T04:14:34;9.35;;;6.07;;
40591;SDS011;26301;42.832;23.918;2022-09-30T04:17:01;8.80;;;5.60;;
40591;SDS011;26301;42.832;23.918;2022-09-30T04:19:29;8.40;;;5.35;;
40591;SDS011;26301;42.832;23.918;2022-09-30T04:21:55;12.23;;;5.20;;
40591;SDS011;26301;42.832;23.918;2022-09-30T04:24:22;9.50;;;5.75;;
40591;SDS011;26301;42.832;23.918;2022-09-30T04:26:49;9.98;;;4.93;;
40591;SDS011;26301;42.832;23.918;2022-09-30T04:29:15;5.80;;;5.20;;
40591;SDS011;26301;42.832;23.918;2022-09-30T04:31:40;5.90;;;5.30;;
40591;SDS011;26301;42.832;23.918;2022-09-30T04:34:06;7.28;;;5.07;;
40591;SDS011;26301;42.832;23.918;2022-09-30T04:36:34;11.90;;;6.65;;
40591;SDS011;26301;42.832;23.918;2022-09-30T04:39:00;9.63;;;5.63;;
40591;SDS011;26301;42.832;23.918;2022-09-30T04:41:26;10.52;;;6.03;;
40591;SDS011;26301;42.832;23.918;2022-09-30T04:43:52;10.35;;;6.03;;
40591;SDS011;26301;42.832;23.918;2022-09-30T04:46:20;6.97;;;5.40;;
40591;SDS011;26301;42.832;23.918;2022-09-30T04:48:47;7.78;;;5.30;;
40591;SDS011;26301;42.832;23.918;2022-09-30T04:51:14;11.63;;;6.10;;
40591;SDS011;26301;42.832;23.918;2022-09-30T04:53:41;8.57;;;5.80;;
40591;SDS011;26301;42.832;23.918;2022-09-30T04:56:07;11.18;;;5.53;;
40591;SDS011;26301;42.832;23.918;2022-09-30T04:58:33;8.00;;;5.68;;
40591;SDS011;26301;42.832;23.918;2022-09-30T05:01:03;10.73;;;5.07;;
40591;SDS011;26301;42.832;23.918;2022-09-30T05:03:31;12.88;;;6.03;;
40591;SDS011;26301;42.832;23.918;2022-09-30T05:05:57;8.88;;;5.10;;
40591;SDS011;26301;42.832;23.918;2022-09-30T05:08:23;10.20;;;5.88;;
40591;SDS011;26301;42.832;23.918;2022-09-30T05:10:55;10.68;;;5.43;;
40591;SDS011;26301;42.832;23.918;2022-09-30T05:13:23;7.22;;;5.20;;
40591;SDS011;26301;42.832;23.918;2022-09-30T05:15:49;6.82;;;5.18;;
40591;SDS011;26301;42.832;23.918;2022-09-30T05:18:16;6.72;;;4.50;;
40591;SDS011;26301;42.832;23.918;2022-09-30T05:20:43;6.65;;;4.68;;
40591;SDS011;26301;42.832;23.918;2022-09-30T05:23:08;11.25;;;7.45;;
40591;SDS011;26301;42.832;23.918;2022-09-30T05:25:34;5.00;;;4.22;;
40591;SDS011;26301;42.832;23.918;2022-09-30T05:28:00;11.07;;;4.80;;
40591;SDS011;26301;42.832;23.918;2022-09-30T05:30:26;6.97;;;4.15;;
40591;SDS011;26301;42.832;23.918;2022-09-30T05:32:52;9.25;;;4.57;;
40591;SDS011;26301;42.832;23.918;2022-09-30T05:35:18;6.00;;;4.65;;
40591;SDS011;26301;42.832;23.918;2022-09-30T05:37:45;7.28;;;4.63;;
40591;SDS011;26301;42.832;23.918;2022-09-30T05:40:10;5.10;;;3.92;;
40591;SDS011;26301;42.832;23.918;2022-09-30T05:42:36;8.77;;;4.20;;
40591;SDS011;26301;42.832;23.918;2022-09-30T05:45:03;5.38;;;4.38;;
40591;SDS011;26301;42.832;23.918;2022-09-30T05:47:30;8.35;;;4.20;;
40591;SDS011;26301;42.832;23.918;2022-09-30T05:49:56;7.40;;;3.85;;
40591;SDS011;26301;42.832;23.918;2022-09-30T05:52:22;7.63;;;3.50;;
40591;SDS011;26301;42.832;23.918;2022-09-30T05:54:48;6.55;;;4.40;;
40591;SDS011;26301;42.832;23.918;2022-09-30T05:57:14;11.45;;;4.13;;
40591;SDS011;26301;42.832;23.918;2022-09-30T05:59:41;10.50;;;4.38;;
40591;SDS011;26301;42.832;23.918;2022-09-30T06:02:08;7.68;;;4.10;;
40591;SDS011;26301;42.832;23.918;2022-09-30T06:04:34;10.60;;;3.88;;
40591;SDS011;26301;42.832;23.918;2022-09-30T06:07:00;6.10;;;4.43;;
40591;SDS011;26301;42.832;23.918;2022-09-30T06:09:25;4.00;;;2.78;;
40591;SDS011;26301;42.832;23.918;2022-09-30T06:11:51;5.30;;;2.53;;
40591;SDS011;26301;42.832;23.918;2022-09-30T06:14:20;3.78;;;2.75;;
40591;SDS011;26301;42.832;23.918;2022-09-30T06:16:46;5.07;;;3.10;;
40591;SDS011;26301;42.832;23.918;2022-09-30T06:19:13;7.90;;;3.00;;
40591;SDS011;26301;42.832;23.918;2022-09-30T06:21:39;5.40;;;2.80;;
40591;SDS011;26301;42.832;23.918;2022-09-30T06:24:05;7.20;;;2.40;;
40591;SDS011;26301;42.832;23.918;2022-09-30T06:26:33;5.82;;;2.67;;
40591;SDS011;26301;42.832;23.918;2022-09-30T06:28:59;4.45;;;2.25;;
40591;SDS011;26301;42.832;23.918;2022-09-30T06:31:24;3.95;;;1.85;;
40591;SDS011;26301;42.832;23.918;2022-09-30T06:33:51;3.50;;;1.98;;
40591;SDS011;26301;42.832;23.918;2022-09-30T06:36:17;3.30;;;2.33;;
40591;SDS011;26301;42.832;23.918;2022-09-30T06:38:43;3.20;;;1.90;;
40591;SDS011;26301;42.832;23.918;2022-09-30T06:41:09;1.50;;;1.35;;
40591;SDS011;26301;42.832;23.918;2022-09-30T06:43:35;2.80;;;1.75;;
40591;SDS011;26301;42.832;23.918;2022-09-30T06:46:01;3.78;;;1.58;;
40591;SDS011;26301;42.832;23.918;2022-09-30T06:48:26;4.70;;;1.25;;
40591;SDS011;26301;42.832;23.918;2022-09-30T06:50:56;3.08;;;1.55;;
40591;SDS011;26301;42.832;23.918;2022-09-30T06:53:22;2.40;;;1.40;;
40591;SDS011;26301;42.832;23.918;2022-09-30T06:55:53;4.22;;;1.60;;
40591;SDS011;26301;42.832;23.918;2022-09-30T06:58:19;5.38;;;1.70;;
40591;SDS011;26301;42.832;23.918;2022-09-30T07:00:54;4.40;;;1.65;;
40591;SDS011;26301;42.832;23.918;2022-09-30T07:03:23;3.55;;;1.50;;
40591;SDS011;26301;42.832;23.918;2022-09-30T07:05:53;3.55;;;1.58;;
40591;SDS011;26301;42.832;23.918;2022-09-30T07:08:21;2.75;;;1.30;;
40591;SDS011;26301;42.832;23.918;2022-09-30T07:10:50;3.70;;;1.42;;
40591;SDS011;26301;42.832;23.918;2022-09-30T07:13:17;2.30;;;1.40;;
40591;SDS011;26301;42.832;23.918;2022-09-30T07:15:43;4.25;;;1.30;;
40591;SDS011;26301;42.832;23.918;2022-09-30T07:18:08;2.35;;;1.30;;
40591;SDS011;26301;42.832;23.918;2022-09-30T07:20:35;2.15;;;1.15;;
40591;SDS011;26301;42.832;23.918;2022-09-30T07:23:01;4.88;;;1.00;;
40591;SDS011;26301;42.832;23.918;2022-09-30T07:25:26;2.42;;;1.30;;
40591;SDS011;26301;42.832;23.918;2022-09-30T07:27:52;4.85;;;2.00;;
40591;SDS011;26301;42.832;23.918;2022-09-30T07:30:19;1.98;;;1.00;;
40591;SDS011;26301;42.832;23.918;2022-09-30T07:32:46;2.50;;;1.23;;
40591;SDS011;26301;42.832;23.918;2022-09-30T07:35:11;4.85;;;1.30;;
40591;SDS011;26301;42.832;23.918;2022-09-30T07:37:37;1.73;;;1.00;;
40591;SDS011;26301;42.832;23.918;2022-09-30T07:40:04;3.83;;;1.10;;
40591;SDS011;26301;42.832;23.918;2022-09-30T07:42:32;3.60;;;1.30;;
40591;SDS011;26301;42.832;23.918;2022-09-30T07:45:01;5.05;;;1.20;;
40591;SDS011;26301;42.832;23.918;2022-09-30T07:47:26;2.10;;;1.08;;
40591;SDS011;26301;42.832;23.918;2022-09-30T07:49:52;3.17;;;1.15;;
40591;SDS011;26301;42.832;23.918;2022-09-30T07:52:17;1.58;;;1.20;;
40591;SDS011;26301;42.832;23.918;2022-09-30T07:54:43;2.90;;;1.15;;
40591;SDS011;26301;42.832;23.918;2022-09-30T07:57:10;2.90;;;1.27;;
40591;SDS011;26301;42.832;23.918;2022-09-30T07:59:37;3.85;;;1.25;;
40591;SDS011;26301;42.832;23.918;2022-09-30T08:02:04;1.27;;;0.88;;
40591;SDS011;26301;42.832;23.918;2022-09-30T08:04:31;4.05;;;1.00;;
40591;SDS011;26301;42.832;23.918;2022-09-30T08:06:58;2.45;;;1.00;;
40591;SDS011;26301;42.832;23.918;2022-09-30T08:09:26;2.00;;;1.00;;
40591;SDS011;26301;42.832;23.918;2022-09-30T08:11:53;2.75;;;0.95;;
40591;SDS011;26301;42.832;23.918;2022-09-30T08:14:20;3.42;;;1.20;;
40591;SDS011;26301;42.832;23.918;2022-09-30T08:16:48;2.83;;;1.10;;
40591;SDS011;26301;42.832;23.918;2022-09-30T08:19:15;3.35;;;1.50;;
40591;SDS011;26301;42.832;23.918;2022-09-30T08:21:42;2.60;;;1.23;;
40591;SDS011;26301;42.832;23.918;2022-09-30T08:24:09;1.75;;;1.00;;
40591;SDS011;26301;42.832;23.918;2022-09-30T08:26:35;3.92;;;1.30;;
40591;SDS011;26301;42.832;23.918;2022-09-30T08:29:02;2.17;;;1.20;;
40591;SDS011;26301;42.832;23.918;2022-09-30T08:31:28;2.65;;;1.08;;
40591;SDS011;26301;42.832;23.918;2022-09-30T08:33:54;2.53;;;1.20;;
40591;SDS011;26301;42.832;23.918;2022-09-30T08:36:22;1.95;;;1.00;;
40591;SDS011;26301;42.832;23.918;2022-09-30T08:38:49;4.50;;;1.40;;
40591;SDS011;26301;42.832;23.918;2022-09-30T08:49:38;3.25;;;1.10;;
40591;SDS011;26301;42.832;23.918;2022-09-30T08:52:24;1.92;;;1.45;;
40591;SDS011;26301;42.832;23.918;2022-09-30T08:54:53;2.95;;;1.35;;
40591;SDS011;26301;42.832;23.918;2022-09-30T08:57:21;2.00;;;1.00;;
40591;SDS011;26301;42.832;23.918;2022-09-30T08:59:50;3.08;;;0.98;;
40591;SDS011;26301;42.832;23.918;2022-09-30T09:04:57;4.63;;;1.30;;
40591;SDS011;26301;42.832;23.918;2022-09-30T09:15:41;3.25;;;1.20;;
40591;SDS011;26301;42.832;23.918;2022-09-30T09:23:16;3.83;;;1.50;;
40591;SDS011;26301;42.832;23.918;2022-09-30T09:25:41;2.58;;;1.10;;
40591;SDS011;26301;42.832;23.918;2022-09-30T09:30:51;4.47;;;1.05;;
40591;SDS011;26301;42.832;23.918;2022-09-30T09:33:22;2.60;;;1.23;;
40591;SDS011;26301;42.832;23.918;2022-09-30T09:36:00;1.15;;;0.80;;
40591;SDS011;26301;42.832;23.918;2022-09-30T09:41:30;1.70;;;1.05;;
40591;SDS011;26301;42.832;23.918;2022-09-30T09:46:40;3.92;;;1.25;;
40591;SDS011;26301;42.832;23.918;2022-09-30T09:51:46;1.88;;;1.10;;
40591;SDS011;26301;42.832;23.918;2022-09-30T09:54:29;3.83;;;1.00;;
40591;SDS011;26301;42.832;23.918;2022-09-30T09:57:05;2.58;;;1.10;;
40591;SDS011;26301;42.832;23.918;2022-09-30T09:59:33;2.17;;;1.00;;
40591;SDS011;26301;42.832;23.918;2022-09-30T10:02:00;4.43;;;1.10;;
40591;SDS011;26301;42.832;23.918;2022-09-30T10:04:27;1.75;;;1.02;;
40591;SDS011;26301;42.832;23.918;2022-09-30T10:07:11;1.30;;;0.98;;
40591;SDS011;26301;42.832;23.918;2022-09-30T10:09:39;3.80;;;1.30;;
40591;SDS011;26301;42.832;23.918;2022-09-30T10:17:02;1.73;;;1.05;;
40591;SDS011;26301;42.832;23.918;2022-09-30T10:19:30;3.38;;;1.00;;
40591;SDS011;26301;42.832;23.918;2022-09-30T10:24:33;3.17;;;1.30;;
40591;SDS011;26301;42.832;23.918;2022-09-30T10:27:01;2.40;;;1.00;;
40591;SDS011;26301;42.832;23.918;2022-09-30T10:29:28;1.75;;;0.95;;
40591;SDS011;26301;42.832;23.918;2022-09-30T10:32:02;1.93;;;0.97;;
40591;SDS011;26301;42.832;23.918;2022-09-30T10:34:33;2.50;;;1.35;;
40591;SDS011;26301;42.832;23.918;2022-09-30T10:37:07;1.55;;;0.88;;
40591;SDS011;26301;42.832;23.918;2022-09-30T10:39:43;1.35;;;0.85;;
40591;SDS011;26301;42.832;23.918;2022-09-30T10:42:29;3.15;;;1.10;;
40591;SDS011;26301;42.832;23.918;2022-09-30T10:44:59;3.65;;;1.33;;
40591;SDS011;26301;42.832;23.918;2022-09-30T10:47:34;2.92;;;1.25;;
40591;SDS011;26301;42.832;23.918;2022-09-30T10:50:12;2.67;;;1.10;;
40591;SDS011;26301;42.832;23.918;2022-09-30T10:52:55;2.10;;;1.13;;
40591;SDS011;26301;42.832;23.918;2022-09-30T10:55:43;2.67;;;1.58;;
40591;SDS011;26301;42.832;23.918;2022-09-30T11:00:48;8.38;;;4.15;;
40591;SDS011;26301;42.832;23.918;2022-09-30T11:03:20;4.35;;;2.30;;
40591;SDS011;26301;42.832;23.918;2022-09-30T11:05:52;4.53;;;1.88;;
40591;SDS011;26301;42.832;23.918;2022-09-30T11:11:36;2.58;;;1.10;;
40591;SDS011;26301;42.832;23.918;2022-09-30T11:19:45;3.10;;;1.40;;
40591;SDS011;26301;42.832;23.918;2022-09-30T11:25:00;2.53;;;1.23;;
40591;SDS011;26301;42.832;23.918;2022-09-30T11:30:11;1.75;;;1.20;;
40591;SDS011;26301;42.832;23.918;2022-09-30T11:35:28;3.35;;;1.10;;
40591;SDS011;26301;42.832;23.918;2022-09-30T11:46:16;2.17;;;1.25;;
40591;SDS011;26301;42.832;23.918;2022-09-30T11:48:54;3.08;;;1.20;;
40591;SDS011;26301;42.832;23.918;2022-09-30T11:57:01;4.22;;;1.00;;
40591;SDS011;26301;42.832;23.918;2022-09-30T12:02:41;5.78;;;1.20;;
40591;SDS011;26301;42.832;23.918;2022-09-30T12:05:25;2.90;;;1.13;;
40591;SDS011;26301;42.832;23.918;2022-09-30T12:13:30;2.55;;;0.95;;
40591;SDS011;26301;42.832;23.918;2022-09-30T12:16:00;1.48;;;0.82;;
40591;SDS011;26301;42.832;23.918;2022-09-30T12:18:31;2.95;;;1.00;;
40591;SDS011;26301;42.832;23.918;2022-09-30T12:21:21;2.70;;;1.20;;
40591;SDS011;26301;42.832;23.918;2022-09-30T12:27:15;2.55;;;1.10;;
40591;SDS011;26301;42.832;23.918;2022-09-30T12:33:05;1.92;;;1.13;;
40591;SDS011;26301;42.832;23.918;2022-09-30T12:41:29;4.25;;;1.33;;
40591;SDS011;26301;42.832;23.918;2022-09-30T12:44:27;3.45;;;1.20;;
40591;SDS011;26301;42.832;23.918;2022-09-30T12:47:19;4.28;;;1.15;;
40591;SDS011;26301;42.832;23.918;2022-09-30T12:49:53;2.20;;;1.40;;
40591;SDS011;26301;42.832;23.918;2022-09-30T12:52:21;2.22;;;1.13;;
40591;SDS011;26301;42.832;23.918;2022-09-30T12:57:31;2.63;;;1.20;;
40591;SDS011;26301;42.832;23.918;2022-09-30T13:00:03;3.72;;;1.65;;
40591;SDS011;26301;42.832;23.918;2022-09-30T13:02:34;1.95;;;1.27;;
40591;SDS011;26301;42.832;23.918;2022-09-30T13:10:30;4.15;;;1.67;;
40591;SDS011;26301;42.832;23.918;2022-09-30T13:20:49;2.27;;;1.23;;
40591;SDS011;26301;42.832;23.918;2022-09-30T13:34:19;3.47;;;1.20;;
40591;SDS011;26301;42.832;23.918;2022-09-30T13:47:12;4.13;;;1.70;;
40591;SDS011;26301;42.832;23.918;2022-09-30T13:49:50;2.80;;;1.67;;
40591;SDS011;26301;42.832;23.918;2022-09-30T13:52:29;3.42;;;1.23;;
40591;SDS011;26301;42.832;23.918;2022-09-30T13:55:01;3.53;;;1.30;;
40591;SDS011;26301;42.832;23.918;2022-09-30T13:57:40;2.17;;;1.27;;
40591;SDS011;26301;42.832;23.918;2022-09-30T14:00:17;3.63;;;2.17;;
40591;SDS011;26301;42.832;23.918;2022-09-30T14:13:35;4.60;;;1.60;;
40591;SDS011;26301;42.832;23.918;2022-09-30T14:22:04;3.83;;;1.70;;
40591;SDS011;26301;42.832;23.918;2022-09-30T14:24:33;4.68;;;1.60;;
40591;SDS011;26301;42.832;23.918;2022-09-30T14:32:29;2.58;;;1.60;;
40591;SDS011;26301;42.832;23.918;2022-09-30T14:34:58;6.45;;;1.80;;
40591;SDS011;26301;42.832;23.918;2022-09-30T14:37:41;5.95;;;1.90;;
40591;SDS011;26301;42.832;23.918;2022-09-30T14:40:10;4.53;;;1.48;;
40591;SDS011;26301;42.832;23.918;2022-09-30T14:42:41;4.57;;;1.75;;
40591;SDS011;26301;42.832;23.918;2022-09-30T14:45:13;4.80;;;1.40;;
40591;SDS011;26301;42.832;23.918;2022-09-30T14:47:50;2.30;;;1.70;;
40591;SDS011;26301;42.832;23.918;2022-09-30T14:50:21;3.75;;;1.80;;
40591;SDS011;26301;42.832;23.918;2022-09-30T14:52:50;2.45;;;1.65;;
40591;SDS011;26301;42.832;23.918;2022-09-30T14:55:29;11.20;;;2.05;;
40591;SDS011;26301;42.832;23.918;2022-09-30T15:01:00;5.60;;;2.20;;
40591;SDS011;26301;42.832;23.918;2022-09-30T15:03:27;7.80;;;2.22;;
40591;SDS011;26301;42.832;23.918;2022-09-30T15:05:53;3.78;;;1.75;;
40591;SDS011;26301;42.832;23.918;2022-09-30T15:08:21;3.05;;;1.80;;
40591;SDS011;26301;42.832;23.918;2022-09-30T15:10:48;5.82;;;2.20;;
40591;SDS011;26301;42.832;23.918;2022-09-30T15:13:16;10.52;;;2.10;;
40591;SDS011;26301;42.832;23.918;2022-09-30T15:15:44;6.28;;;1.95;;
40591;SDS011;26301;42.832;23.918;2022-09-30T15:18:43;10.45;;;1.95;;
40591;SDS011;26301;42.832;23.918;2022-09-30T15:21:11;8.90;;;1.80;;
40591;SDS011;26301;42.832;23.918;2022-09-30T15:23:44;9.27;;;2.00;;
40591;SDS011;26301;42.832;23.918;2022-09-30T15:26:16;9.88;;;2.20;;
40591;SDS011;26301;42.832;23.918;2022-09-30T15:28:43;4.60;;;2.10;;
40591;SDS011;26301;42.832;23.918;2022-09-30T15:31:20;11.40;;;2.25;;
40591;SDS011;26301;42.832;23.918;2022-09-30T15:34:01;8.20;;;2.05;;
40591;SDS011;26301;42.832;23.918;2022-09-30T15:36:31;4.93;;;2.00;;
40591;SDS011;26301;42.832;23.918;2022-09-30T15:39:00;5.28;;;2.00;;
40591;SDS011;26301;42.832;23.918;2022-09-30T15:41:27;4.88;;;2.90;;
40591;SDS011;26301;42.832;23.918;2022-09-30T15:43:53;6.38;;;2.45;;
40591;SDS011;26301;42.832;23.918;2022-09-30T15:46:21;6.20;;;2.30;;
40591;SDS011;26301;42.832;23.918;2022-09-30T15:48:51;7.82;;;2.55;;
40591;SDS011;26301;42.832;23.918;2022-09-30T15:51:25;8.35;;;2.28;;
40591;SDS011;26301;42.832;23.918;2022-09-30T15:53:55;7.65;;;2.80;;
40591;SDS011;26301;42.832;23.918;2022-09-30T15:58:58;5.78;;;2.60;;
40591;SDS011;26301;42.832;23.918;2022-09-30T16:01:33;6.30;;;2.42;;
40591;SDS011;26301;42.832;23.918;2022-09-30T16:04:04;7.05;;;2.30;;
40591;SDS011;26301;42.832;23.918;2022-09-30T16:11:43;8.98;;;3.00;;
40591;SDS011;26301;42.832;23.918;2022-09-30T16:17:35;6.05;;;2.40;;
40591;SDS011;26301;42.832;23.918;2022-09-30T16:20:04;9.77;;;2.78;;
40591;SDS011;26301;42.832;23.918;2022-09-30T16:22:34;8.32;;;2.80;;
40591;SDS011;26301;42.832;23.918;2022-09-30T16:25:21;10.63;;;2.50;;
40591;SDS011;26301;42.832;23.918;2022-09-30T16:27:54;10.23;;;2.60;;
40591;SDS011;26301;42.832;23.918;2022-09-30T16:30:23;7.38;;;2.42;;
40591;SDS011;26301;42.832;23.918;2022-09-30T16:32:50;6.30;;;2.80;;
40591;SDS011;26301;42.832;23.918;2022-09-30T16:35:23;7.32;;;2.53;;
40591;SDS011;26301;42.832;23.918;2022-09-30T16:37:56;6.07;;;2.08;;
40591;SDS011;26301;42.832;23.918;2022-09-30T16:40:24;4.60;;;2.60;;
40591;SDS011;26301;42.832;23.918;2022-09-30T16:42:53;3.85;;;2.05;;
40591;SDS011;26301;42.832;23.918;2022-09-30T16:45:19;5.07;;;2.30;;
40591;SDS011;26301;42.832;23.918;2022-09-30T16:47:46;8.15;;;2.50;;
40591;SDS011;26301;42.832;23.918;2022-09-30T16:53:06;4.13;;;2.33;;
40591;SDS011;26301;42.832;23.918;2022-09-30T16:55:34;5.45;;;2.88;;
40591;SDS011;26301;42.832;23.918;2022-09-30T16:58:00;7.57;;;2.95;;
40591;SDS011;26301;42.832;23.918;2022-09-30T17:00:28;5.10;;;2.72;;
40591;SDS011;26301;42.832;23.918;2022-09-30T17:02:54;7.00;;;2.70;;
40591;SDS011;26301;42.832;23.918;2022-09-30T17:05:20;4.20;;;2.20;;
40591;SDS011;26301;42.832;23.918;2022-09-30T17:07:52;7.90;;;2.63;;
40591;SDS011;26301;42.832;23.918;2022-09-30T17:12:53;6.50;;;2.45;;
40591;SDS011;26301;42.832;23.918;2022-09-30T17:15:20;3.33;;;2.10;;
40591;SDS011;26301;42.832;23.918;2022-09-30T17:17:47;3.35;;;2.22;;
40591;SDS011;26301;42.832;23.918;2022-09-30T17:20:13;7.28;;;2.40;;
40591;SDS011;26301;42.832;23.918;2022-09-30T17:22:39;4.88;;;2.22;;
40591;SDS011;26301;42.832;23.918;2022-09-30T17:25:06;5.78;;;2.08;;
40591;SDS011;26301;42.832;23.918;2022-09-30T17:27:33;5.55;;;2.03;;
40591;SDS011;26301;42.832;23.918;2022-09-30T17:29:58;4.93;;;2.30;;
40591;SDS011;26301;42.832;23.918;2022-09-30T17:32:25;5.68;;;2.10;;
40591;SDS011;26301;42.832;23.918;2022-09-30T17:34:51;5.38;;;2.42;;
40591;SDS011;26301;42.832;23.918;2022-09-30T17:37:17;2.90;;;1.85;;
40591;SDS011;26301;42.832;23.918;2022-09-30T17:39:44;5.68;;;2.30;;
40591;SDS011;26301;42.832;23.918;2022-09-30T17:42:13;3.97;;;2.28;;
40591;SDS011;26301;42.832;23.918;2022-09-30T17:44:58;5.55;;;2.05;;
40591;SDS011;26301;42.832;23.918;2022-09-30T17:47:24;8.52;;;2.05;;
40591;SDS011;26301;42.832;23.918;2022-09-30T17:49:50;5.50;;;2.10;;
40591;SDS011;26301;42.832;23.918;2022-09-30T17:52:16;3.92;;;2.15;;
40591;SDS011;26301;42.832;23.918;2022-09-30T17:54:42;8.02;;;2.22;;
40591;SDS011;26301;42.832;23.918;2022-09-30T17:57:07;8.88;;;2.15;;
40591;SDS011;26301;42.832;23.918;2022-09-30T17:59:33;9.52;;;2.40;;
40591;SDS011;26301;42.832;23.918;2022-09-30T18:01:59;6.00;;;2.20;;
40591;SDS011;26301;42.832;23.918;2022-09-30T18:04:25;6.82;;;2.67;;
40591;SDS011;26301;42.832;23.918;2022-09-30T18:06:51;4.85;;;2.30;;
40591;SDS011;26301;42.832;23.918;2022-09-30T18:09:18;4.43;;;2.20;;
40591;SDS011;26301;42.832;23.918;2022-09-30T18:11:43;7.97;;;2.20;;
40591;SDS011;26301;42.832;23.918;2022-09-30T18:14:09;7.40;;;2.53;;
40591;SDS011;26301;42.832;23.918;2022-09-30T18:16:36;9.50;;;2.50;;
40591;SDS011;26301;42.832;23.918;2022-09-30T18:19:03;4.15;;;2.05;;
40591;SDS011;26301;42.832;23.918;2022-09-30T18:21:30;6.07;;;2.20;;
40591;SDS011;26301;42.832;23.918;2022-09-30T18:23:57;6.60;;;2.67;;
40591;SDS011;26301;42.832;23.918;2022-09-30T18:26:23;6.22;;;2.40;;
40591;SDS011;26301;42.832;23.918;2022-09-30T18:28:50;8.68;;;2.25;;
40591;SDS011;26301;42.832;23.918;2022-09-30T18:31:17;4.07;;;2.25;;
40591;SDS011;26301;42.832;23.918;2022-09-30T18:33:54;5.50;;;2.92;;
40591;SDS011;26301;42.832;23.918;2022-09-30T18:36:21;3.50;;;1.70;;
40591;SDS011;26301;42.832;23.918;2022-09-30T18:38:51;6.70;;;2.17;;
40591;SDS011;26301;42.832;23.918;2022-09-30T18:41:17;4.20;;;2.25;;
40591;SDS011;26301;42.832;23.918;2022-09-30T18:43:43;7.68;;;2.20;;
40591;SDS011;26301;42.832;23.918;2022-09-30T18:46:10;5.10;;;2.03;;